createdAt,value
2018-04-28T00:02:12.441Z,89.30
2018-04-28T00:04:41.086Z,90.00
2018-04-28T00:07:08.953Z,89.90
2018-04-28T00:09:37.427Z,90.30
2018-04-28T00:12:05.294Z,90.40
2018-04-28T00:14:33.058Z,90.30
2018-04-28T00:17:04.814Z,90.50
2018-04-28T00:19:33.501Z,90.60
2018-04-28T00:22:06.018Z,90.70
2018-04-28T00:24:43.568Z,90.90
2018-04-28T00:27:12.561Z,91.00
2018-04-28T00:29:44.314Z,91.20
2018-04-28T00:32:12.180Z,91.20
2018-04-28T00:34:44.760Z,91.30
2018-04-28T00:37:14.362Z,91.30
2018-04-28T00:39:45.914Z,91.40
2018-04-28T00:42:13.678Z,91.60
2018-04-28T00:44:42.261Z,91.70
2018-04-28T00:47:19.956Z,91.70
2018-04-28T00:50:02.465Z,91.70
2018-04-28T00:52:30.268Z,91.70
2018-04-28T00:55:00.449Z,91.80
2018-04-28T00:57:32.410Z,91.80
2018-04-28T01:00:04.176Z,91.80
2018-04-28T01:02:32.033Z,91.90
2018-04-28T01:04:59.899Z,92.00
2018-04-28T01:07:27.764Z,92.10
2018-04-28T01:09:59.111Z,92.00
2018-04-28T01:12:26.977Z,92.10
2018-04-28T01:15:13.581Z,92.10
2018-04-28T01:17:58.140Z,92.20
2018-04-28T01:20:30.509Z,92.10
2018-04-28T01:23:04.070Z,92.20
2018-04-28T01:25:41.501Z,92.20
2018-04-28T01:28:25.032Z,92.20
2018-04-28T01:30:52.902Z,92.20
2018-04-28T01:33:48.514Z,92.40
2018-04-28T01:36:37.268Z,92.40
2018-04-28T01:39:08.737Z,92.50
2018-04-28T01:41:51.432Z,92.60
2018-04-28T01:44:34.839Z,92.40
2018-04-28T01:47:08.563Z,92.20
2018-04-28T01:49:45.237Z,92.20
2018-04-28T01:52:13.922Z,92.30
2018-04-28T01:54:55.304Z,92.30
2018-04-28T01:57:23.169Z,92.40
2018-04-28T01:59:54.721Z,92.30
2018-04-28T02:02:40.199Z,92.40
2018-04-28T02:05:12.776Z,92.40
2018-04-28T02:07:41.489Z,92.50
2018-04-28T02:10:09.326Z,92.50
2018-04-28T02:12:48.046Z,92.60
2018-04-28T02:15:24.615Z,92.50
2018-04-28T02:18:00.060Z,92.40
2018-04-28T02:20:30.528Z,92.40
2018-04-28T02:23:05.006Z,92.40
2018-04-28T02:25:51.508Z,92.40
2018-04-28T02:28:25.211Z,92.40
2018-04-28T02:31:01.632Z,92.50
2018-04-28T02:33:30.363Z,92.60
2018-04-28T02:36:00.689Z,92.70
2018-04-28T02:38:34.429Z,92.60
2018-04-28T02:41:13.006Z,92.70
2018-04-28T02:43:58.485Z,92.70
2018-04-28T02:46:29.162Z,92.70
2018-04-28T02:49:17.255Z,92.50
2018-04-28T02:51:51.746Z,92.50
2018-04-28T02:54:24.353Z,92.50
2018-04-28T02:56:57.575Z,92.50
2018-04-28T02:59:37.189Z,92.50
2018-04-28T03:02:26.559Z,92.50
2018-04-28T03:05:00.103Z,92.50
2018-04-28T03:07:36.831Z,92.40
2018-04-28T03:10:24.158Z,92.50
2018-04-28T03:12:52.019Z,92.90
2018-04-28T03:15:19.886Z,92.40
2018-04-28T03:17:58.202Z,92.30
2018-04-28T03:20:30.502Z,92.30
2018-04-28T03:23:01.293Z,92.30
2018-04-28T03:25:29.159Z,92.30
2018-04-28T03:28:01.838Z,92.30
2018-04-28T03:30:47.316Z,92.30
2018-04-28T03:33:22.861Z,92.20
2018-04-28T03:35:51.381Z,92.20
2018-04-28T03:38:50.644Z,92.30
2018-04-28T03:41:31.208Z,92.20
2018-04-28T03:44:06.898Z,92.30
2018-04-28T03:46:36.256Z,92.40
2018-04-28T03:49:19.995Z,92.40
2018-04-28T03:51:50.829Z,92.40
2018-04-28T03:54:22.381Z,92.30
2018-04-28T04:00:01.121Z,92.10
2018-04-28T04:02:40.762Z,92.20
2018-04-28T04:05:11.086Z,92.10
2018-04-28T04:07:53.799Z,92.50
2018-04-28T04:10:26.623Z,92.30
2018-04-28T04:13:07.188Z,92.40
2018-04-28T04:15:54.260Z,92.50
2018-04-28T04:18:26.631Z,92.40
2018-04-28T04:21:23.273Z,92.40
2018-04-28T04:24:02.865Z,92.30
2018-04-28T04:26:52.077Z,92.30
2018-04-28T04:29:25.677Z,92.30
2018-04-28T04:31:58.488Z,92.20
2018-04-28T04:37:54.707Z,92.10
2018-04-28T04:40:41.210Z,92.10
2018-04-28T04:43:31.603Z,92.00
2018-04-28T04:46:00.288Z,92.00
2018-04-28T04:52:03.808Z,91.90
2018-04-28T04:54:48.364Z,91.90
2018-04-28T04:57:27.860Z,91.90
2018-04-28T05:03:19.954Z,91.70
2018-04-28T05:06:11.373Z,91.60
2018-04-28T05:08:45.894Z,91.60
2018-04-28T05:11:33.633Z,91.40
2018-04-28T05:14:24.125Z,91.40
2018-04-28T05:16:58.745Z,91.20
2018-04-28T05:19:47.400Z,91.10
2018-04-28T05:22:22.228Z,90.80
2018-04-28T05:25:10.677Z,90.40
2018-04-28T05:27:47.354Z,90.30
2018-04-28T05:30:26.993Z,90.30
2018-04-28T05:33:10.523Z,90.10
2018-04-28T05:35:57.165Z,89.60
2018-04-28T05:38:51.207Z,89.10
2018-04-28T05:41:25.626Z,88.90
2018-04-28T05:44:17.043Z,88.90
2018-04-28T05:50:26.093Z,88.40
2018-04-28T05:53:05.840Z,89.10
2018-04-28T05:55:49.681Z,89.00
2018-04-28T05:58:35.982Z,88.90
2018-04-28T06:01:25.762Z,89.40
2018-04-28T06:04:04.167Z,89.20
2018-04-28T06:07:05.416Z,90.00
2018-04-28T06:09:54.072Z,89.90
2018-04-28T06:12:33.710Z,89.70
2018-04-28T06:15:12.225Z,88.90
2018-04-28T06:17:51.945Z,88.90
2018-04-28T06:20:31.824Z,89.00
2018-04-28T06:22:59.687Z,88.30
2018-04-28T06:25:27.549Z,87.70
2018-04-28T06:27:55.412Z,87.50
2018-04-28T06:30:23.169Z,86.50
2018-04-28T06:32:51.043Z,86.40
2018-04-28T06:35:18.907Z,86.30
2018-04-28T06:37:46.771Z,85.30
2018-04-28T06:40:14.637Z,85.30
2018-04-28T06:42:42.503Z,86.20
2018-04-28T06:45:10.249Z,86.30
2018-04-28T06:47:38.133Z,86.60
2018-04-28T06:50:05.866Z,87.00
2018-04-28T06:52:33.658Z,87.10
2018-04-28T06:55:01.524Z,87.90
2018-04-28T06:57:29.395Z,87.20
2018-04-28T06:59:57.266Z,87.20
2018-04-28T07:02:25.056Z,88.40
2018-04-28T07:04:52.987Z,87.20
2018-04-28T07:07:20.728Z,87.90
2018-04-28T07:09:48.401Z,87.40
2018-04-28T07:12:16.276Z,87.70
2018-04-28T07:14:44.040Z,86.90
2018-04-28T07:17:11.905Z,86.80
2018-04-28T07:19:39.773Z,87.20
2018-04-28T07:22:07.575Z,86.50
2018-04-28T07:24:36.061Z,84.40
2018-04-28T07:27:04.537Z,81.10
2018-04-28T07:29:33.178Z,80.50
2018-04-28T07:32:00.942Z,80.40
2018-04-28T07:34:28.807Z,77.70
2018-04-28T07:36:56.609Z,78.30
2018-04-28T07:39:25.097Z,73.00
2018-04-28T07:41:53.590Z,72.50
2018-04-28T07:44:21.499Z,72.40
2018-04-28T07:46:49.364Z,71.90
2018-04-28T07:49:17.230Z,72.90
2018-04-28T07:51:44.994Z,70.60
2018-04-28T07:54:12.860Z,68.20
2018-04-28T07:56:40.546Z,66.90
2018-04-28T07:59:08.385Z,67.00
2018-04-28T08:01:36.250Z,62.50
2018-04-28T08:04:04.120Z,64.60
2018-04-28T08:06:31.861Z,64.40
2018-04-28T08:08:59.746Z,64.70
2018-04-28T08:11:27.611Z,66.10
2018-04-28T08:13:55.477Z,63.50
2018-04-28T08:16:23.241Z,63.70
2018-04-28T08:18:51.105Z,62.50
2018-04-28T08:21:18.869Z,61.90
2018-04-28T08:23:46.734Z,63.30
2018-04-28T08:26:14.466Z,65.30
2018-04-28T08:28:42.363Z,64.90
2018-04-28T08:31:10.228Z,64.80
2018-04-28T08:33:38.095Z,63.30
2018-04-28T08:36:05.960Z,62.20
2018-04-28T08:38:33.825Z,62.20
2018-04-28T08:41:01.693Z,61.30
2018-04-28T08:43:29.441Z,61.60
2018-04-28T08:45:57.217Z,62.40
2018-04-28T08:48:24.953Z,63.60
2018-04-28T08:50:52.846Z,63.00
2018-04-28T08:53:20.712Z,63.20
2018-04-28T08:55:48.577Z,63.90
2018-04-28T08:58:16.317Z,64.10
2018-04-28T09:01:04.641Z,65.10
2018-04-28T09:03:32.557Z,63.20
2018-04-28T09:06:00.425Z,61.50
2018-04-28T09:08:28.121Z,60.60
2018-04-28T09:10:56.597Z,63.60
2018-04-28T09:13:25.067Z,62.20
2018-04-28T09:15:52.905Z,62.20
2018-04-28T09:18:20.771Z,62.70
2018-04-28T09:20:48.538Z,61.40
2018-04-28T09:23:16.295Z,61.10
2018-04-28T09:25:44.161Z,59.60
2018-04-28T09:28:11.926Z,59.50
2018-04-28T09:30:39.790Z,59.00
2018-04-28T09:33:07.670Z,58.70
2018-04-28T09:35:36.342Z,57.90
2018-04-28T09:38:04.108Z,57.80
2018-04-28T09:40:31.970Z,57.20
2018-04-28T09:42:59.838Z,56.30
2018-04-28T09:45:27.536Z,56.70
2018-04-28T09:47:56.180Z,52.70
2018-04-28T09:50:23.868Z,52.70
2018-04-28T09:52:51.541Z,53.90
2018-04-28T09:55:20.186Z,55.90
2018-04-28T09:57:59.832Z,55.80
2018-04-28T10:00:46.331Z,55.40
2018-04-28T10:03:31.782Z,54.10
2018-04-28T10:05:59.671Z,54.50
2018-04-28T10:08:27.331Z,54.20
2018-04-28T10:10:55.099Z,52.80
2018-04-28T10:13:22.804Z,52.90
2018-04-28T10:15:51.343Z,56.20
2018-04-28T10:18:19.208Z,56.10
2018-04-28T10:20:47.156Z,56.80
2018-04-28T10:23:15.657Z,56.70
2018-04-28T10:25:43.419Z,56.60
2018-04-28T10:28:11.284Z,55.70
2018-04-28T10:30:38.985Z,55.70
2018-04-28T10:33:07.429Z,57.80
2018-04-28T10:35:35.187Z,57.80
2018-04-28T10:38:02.952Z,58.10
2018-04-28T10:40:30.657Z,58.30
2018-04-28T10:42:59.152Z,59.30
2018-04-28T10:45:26.825Z,59.20
2018-04-28T10:47:54.531Z,60.40
2018-04-28T10:50:22.253Z,61.80
2018-04-28T10:52:49.950Z,62.80
2018-04-28T10:55:17.621Z,65.00
2018-04-28T10:57:45.327Z,65.80
2018-04-28T11:00:13.033Z,66.20
2018-04-28T11:02:40.714Z,65.80
2018-04-28T11:05:08.458Z,65.90
2018-04-28T11:07:36.161Z,65.50
2018-04-28T11:10:04.694Z,66.60
2018-04-28T11:12:32.392Z,66.50
2018-04-28T11:15:00.834Z,67.80
2018-04-28T11:17:28.538Z,67.70
2018-04-28T11:19:57.024Z,67.30
2018-04-28T11:22:24.709Z,67.30
2018-04-28T11:24:52.502Z,66.90
2018-04-28T11:27:20.366Z,66.50
2018-04-28T11:29:48.066Z,66.10
2018-04-28T11:32:16.505Z,66.10
2018-04-28T11:34:44.201Z,65.20
2018-04-28T11:37:12.355Z,64.00
2018-04-28T11:39:40.208Z,62.80
2018-04-28T11:42:07.969Z,62.40
2018-04-28T11:44:35.645Z,62.50
2018-04-28T11:47:03.328Z,61.80
2018-04-28T11:49:31.805Z,61.70
2018-04-28T11:52:00.293Z,62.80
2018-04-28T11:54:28.838Z,63.50
2018-04-28T11:56:56.705Z,62.50
2018-04-28T11:59:24.570Z,63.00
2018-04-28T12:01:52.328Z,62.20
2018-04-28T12:04:20.194Z,62.60
2018-04-28T12:06:48.060Z,63.50
2018-04-28T12:09:15.823Z,63.90
2018-04-28T12:11:43.689Z,65.30
2018-04-28T12:14:11.451Z,66.60
2018-04-28T12:16:39.215Z,65.50
2018-04-28T12:19:07.080Z,65.90
2018-04-28T12:21:34.946Z,65.50
2018-04-28T12:24:02.812Z,65.40
2018-04-28T12:26:30.676Z,64.40
2018-04-28T12:28:58.439Z,64.90
2018-04-28T12:31:26.305Z,65.30
2018-04-28T12:33:54.170Z,66.30
2018-04-28T12:36:22.040Z,66.30
2018-04-28T12:38:49.799Z,66.70
2018-04-28T12:41:17.666Z,65.60
2018-04-28T12:43:45.531Z,66.00
2018-04-28T12:46:13.982Z,68.40
2018-04-28T12:48:41.979Z,69.20
2018-04-28T12:51:09.742Z,69.20
2018-04-28T12:53:37.511Z,69.30
2018-04-28T12:56:05.371Z,68.30
2018-04-28T12:58:33.136Z,66.70
2018-04-28T13:01:01.000Z,65.60
2018-04-28T13:03:28.865Z,65.30
2018-04-28T13:05:56.733Z,65.20
2018-04-28T13:08:24.494Z,65.20
2018-04-28T13:10:52.359Z,65.30
2018-04-28T13:13:20.061Z,64.80
2018-04-28T13:15:48.501Z,64.70
2018-04-28T13:18:16.367Z,64.50
2018-04-28T13:20:44.184Z,63.50
2018-04-28T13:23:12.814Z,62.20
2018-04-28T13:25:40.680Z,61.30
2018-04-28T13:28:08.447Z,60.60
2018-04-28T13:30:36.309Z,60.30
2018-04-28T13:33:04.176Z,60.20
2018-04-28T13:35:32.041Z,58.90
2018-04-28T13:37:59.804Z,58.60
2018-04-28T13:40:28.490Z,59.90
2018-04-28T13:42:56.161Z,60.00
2018-04-28T13:45:23.912Z,61.50
2018-04-28T13:47:51.780Z,61.70
2018-04-28T13:50:19.541Z,60.50
2018-04-28T13:52:47.407Z,58.80
2018-04-28T13:55:15.272Z,56.70
2018-04-28T13:57:42.945Z,56.50
2018-04-28T14:00:10.799Z,54.90
2018-04-28T14:02:38.666Z,54.50
2018-04-28T14:05:06.532Z,54.50
2018-04-28T14:07:34.293Z,56.10
2018-04-28T14:10:02.163Z,56.50
2018-04-28T14:12:29.922Z,57.40
2018-04-28T14:14:57.685Z,58.20
2018-04-28T14:17:25.550Z,59.20
2018-04-28T14:19:53.314Z,60.40
2018-04-28T14:22:21.168Z,60.80
2018-04-28T14:24:49.045Z,59.60
2018-04-28T14:27:16.910Z,58.10
2018-04-28T14:29:44.674Z,58.20
2018-04-28T14:32:12.539Z,58.10
2018-04-28T14:34:40.405Z,57.30
2018-04-28T14:37:08.168Z,56.70
2018-04-28T14:39:36.082Z,53.90
2018-04-28T14:42:04.616Z,53.80
2018-04-28T14:44:32.380Z,53.70
2018-04-28T14:47:00.962Z,53.00
2018-04-28T14:49:28.633Z,52.80
2018-04-28T14:51:56.329Z,53.40
2018-04-28T14:54:24.813Z,53.20
2018-04-28T14:56:53.454Z,52.80
2018-04-28T14:59:21.211Z,52.70
2018-04-28T15:01:49.077Z,51.30
2018-04-28T15:04:17.152Z,50.60
2018-04-28T15:06:44.865Z,53.10
2018-04-28T15:09:12.674Z,53.10
2018-04-28T15:11:40.438Z,53.10
2018-04-28T15:14:08.303Z,52.40
2018-04-28T15:16:36.183Z,52.40
2018-04-28T15:19:03.898Z,52.60
2018-04-28T15:21:31.583Z,51.90
2018-04-28T15:23:59.362Z,50.60
2018-04-28T15:26:27.061Z,50.10
2018-04-28T15:28:55.506Z,50.70
2018-04-28T15:31:23.361Z,50.70
2018-04-28T15:33:51.124Z,52.40
2018-04-28T15:36:18.990Z,52.80
2018-04-28T15:38:46.856Z,53.20
2018-04-28T15:41:14.729Z,53.10
2018-04-28T15:43:42.589Z,53.80
2018-04-28T15:46:10.456Z,53.20
2018-04-28T15:48:38.318Z,52.70
2018-04-28T15:51:06.137Z,52.90
2018-04-28T15:53:34.766Z,52.80
2018-04-28T15:56:02.529Z,52.70
2018-04-28T15:58:30.205Z,52.50
2018-04-28T16:00:57.906Z,52.30
2018-04-28T16:03:25.581Z,52.50
2018-04-28T16:05:53.289Z,51.00
2018-04-28T16:08:20.991Z,51.80
2018-04-28T16:10:49.622Z,52.40
2018-04-28T16:13:17.394Z,52.40
2018-04-28T16:15:45.250Z,52.10
2018-04-28T16:18:13.025Z,50.50
2018-04-28T16:20:40.715Z,46.20
2018-04-28T16:23:09.317Z,36.40
2018-04-28T16:25:36.991Z,36.30
2018-04-28T16:28:04.676Z,34.00
2018-04-28T16:30:32.389Z,31.80
2018-04-28T16:33:00.825Z,32.90
2018-04-28T16:35:28.522Z,32.80
2018-04-28T16:37:56.997Z,37.00
2018-04-28T16:40:25.465Z,39.60
2018-04-28T16:42:53.145Z,39.60
2018-04-28T16:45:21.617Z,42.30
2018-04-28T16:47:49.312Z,42.20
2018-04-28T16:50:16.990Z,41.30
2018-04-28T16:52:44.709Z,43.30
2018-04-28T16:55:13.155Z,47.20
2018-04-28T16:57:40.856Z,47.20
2018-04-28T17:00:09.321Z,50.40
2018-04-28T17:02:37.155Z,50.40
2018-04-28T17:05:05.632Z,53.60
2018-04-28T17:07:33.499Z,53.60
2018-04-28T17:10:01.366Z,53.80
2018-04-28T17:12:29.129Z,54.20
2018-04-28T17:14:56.993Z,55.10
2018-04-28T17:17:36.273Z,55.40
2018-04-28T17:20:04.749Z,56.80
2018-04-28T17:22:33.185Z,57.50
2018-04-28T17:25:00.980Z,57.40
2018-04-28T17:27:28.651Z,58.00
2018-04-28T17:29:57.097Z,59.20
2018-04-28T17:32:24.793Z,59.10
2018-04-28T17:34:53.274Z,60.80
2018-04-28T17:37:21.753Z,61.80
2018-04-28T17:39:50.191Z,62.20
2018-04-28T17:42:17.957Z,62.10
2018-04-28T17:44:45.701Z,62.10
2018-04-28T17:47:13.381Z,62.70
2018-04-28T17:49:41.086Z,63.50
2018-04-28T17:52:09.530Z,66.60
2018-04-28T17:54:37.218Z,66.50
2018-04-28T17:57:05.725Z,67.80
2018-04-28T17:59:33.407Z,67.70
2018-04-28T18:02:01.097Z,67.80
2018-04-28T18:04:29.619Z,68.20
2018-04-28T18:07:02.207Z,68.00
2018-04-28T18:09:34.120Z,66.80
2018-04-28T18:12:04.700Z,66.90
2018-04-28T18:14:32.625Z,66.60
2018-04-28T18:17:01.132Z,68.20
2018-04-28T18:19:29.155Z,68.10
2018-04-28T18:21:57.014Z,68.40
2018-04-28T18:24:25.004Z,68.70
2018-04-28T18:26:52.847Z,68.70
2018-04-28T18:29:20.615Z,69.20
2018-04-28T18:31:48.476Z,68.40
2018-04-28T18:34:16.240Z,68.80
2018-04-28T18:36:43.917Z,68.80
2018-04-28T18:39:11.766Z,69.00
2018-04-28T18:41:39.442Z,68.80
2018-04-28T18:44:07.269Z,68.80
2018-04-28T18:46:35.162Z,68.40
2018-04-28T18:49:03.023Z,69.70
2018-04-28T18:51:30.889Z,70.00
2018-04-28T18:53:58.754Z,70.40
2018-04-28T18:56:26.620Z,70.60
2018-04-28T18:59:06.035Z,70.80
2018-04-28T19:01:41.656Z,70.40
2018-04-28T19:04:15.595Z,71.00
2018-04-28T19:06:52.349Z,71.00
2018-04-28T19:09:21.104Z,72.30
2018-04-28T19:11:48.936Z,72.20
2018-04-28T19:14:16.832Z,72.70
2018-04-28T19:16:44.807Z,72.90
2018-04-28T19:19:14.073Z,73.80
2018-04-28T19:21:41.942Z,73.70
2018-04-28T19:24:09.905Z,74.20
2018-04-28T19:26:37.773Z,74.70
2018-04-28T19:29:05.634Z,74.50
2018-04-28T19:31:33.499Z,75.40
2018-04-28T19:36:58.753Z,75.60
2018-04-28T19:39:27.406Z,76.70
2018-04-28T19:41:55.172Z,76.60
2018-04-28T19:44:22.909Z,76.90
2018-04-28T19:46:50.696Z,76.90
2018-04-28T19:49:18.411Z,77.00
2018-04-28T19:51:46.890Z,77.60
2018-04-28T19:54:15.363Z,77.70
2018-04-28T19:56:43.104Z,77.60
2018-04-28T19:59:10.812Z,77.70
2018-04-28T20:01:38.529Z,78.00
2018-04-28T20:04:06.206Z,78.20
2018-04-28T20:06:34.850Z,78.70
2018-04-28T20:09:02.557Z,78.60
2018-04-28T20:11:31.094Z,78.70
2018-04-28T20:13:58.958Z,78.60
2018-04-28T20:16:26.788Z,78.70
2018-04-28T20:18:55.304Z,78.60
2018-04-28T20:21:23.170Z,78.60
2018-04-28T20:24:02.913Z,78.50
2018-04-28T20:26:30.780Z,78.20
2018-04-28T20:28:59.338Z,77.60
2018-04-28T20:31:27.127Z,76.90
2018-04-28T20:33:54.994Z,76.40
2018-04-28T20:36:22.860Z,76.00
2018-04-28T20:38:50.625Z,76.00
2018-04-28T20:41:18.484Z,76.00
2018-04-28T20:43:46.350Z,76.00
2018-04-28T20:46:14.117Z,76.20
2018-04-28T20:48:41.874Z,76.30
2018-04-28T20:51:09.639Z,76.40
2018-04-28T20:53:37.403Z,76.40
2018-04-28T20:56:05.274Z,76.40
2018-04-28T20:58:33.033Z,76.40
2018-04-28T21:01:00.763Z,76.50
2018-04-28T21:03:28.661Z,76.50
2018-04-28T21:05:56.425Z,76.60
2018-04-28T21:08:24.289Z,76.90
2018-04-28T21:10:52.160Z,76.90
2018-04-28T21:13:20.021Z,76.90
2018-04-28T21:15:47.784Z,76.90
2018-04-28T21:18:15.496Z,76.90
2018-04-28T21:20:44.130Z,77.20
2018-04-28T21:23:11.810Z,77.20
2018-04-28T21:25:39.657Z,77.30
2018-04-28T21:28:07.421Z,77.30
2018-04-28T21:30:35.287Z,77.20
2018-04-28T21:33:03.151Z,76.50
2018-04-28T21:35:30.913Z,77.10
2018-04-28T21:37:58.787Z,76.40
2018-04-28T21:40:26.552Z,77.50
2018-04-28T21:42:54.408Z,77.30
2018-04-28T21:45:22.113Z,77.20
2018-04-28T21:47:50.714Z,77.30
2018-04-28T21:50:18.516Z,77.30
2018-04-28T21:52:46.280Z,77.30
2018-04-28T21:55:13.997Z,77.60
2018-04-28T21:57:42.767Z,78.30
2018-04-28T22:00:11.206Z,77.60
2018-04-28T22:02:39.073Z,77.50
2018-04-28T22:05:06.745Z,77.80
2018-04-28T22:07:34.428Z,77.80
2018-04-28T22:10:03.080Z,77.80
2018-04-28T22:12:30.945Z,77.80
2018-04-28T22:14:58.816Z,77.70
2018-04-28T22:17:26.676Z,77.20
2018-04-28T22:19:54.439Z,77.90
2018-04-28T22:22:22.204Z,78.20
2018-04-28T22:24:50.072Z,78.20
2018-04-28T22:27:17.753Z,78.10
2018-04-28T22:29:45.453Z,78.30
2018-04-28T22:32:13.161Z,78.80
2018-04-28T22:34:40.916Z,79.40
2018-04-28T22:37:08.782Z,79.70
2018-04-28T22:39:36.501Z,79.80
2018-04-28T22:42:04.200Z,79.60
2018-04-28T22:44:32.074Z,79.50
2018-04-28T22:46:59.937Z,79.70
2018-04-28T22:49:27.803Z,79.70
2018-04-28T22:51:55.486Z,79.90
2018-04-28T22:54:23.197Z,80.10
2018-04-28T22:56:50.894Z,80.20
2018-04-28T22:59:18.575Z,80.30
2018-04-28T23:01:47.233Z,80.30
2018-04-28T23:04:14.998Z,80.30
2018-04-28T23:06:42.850Z,79.70
2018-04-28T23:09:11.446Z,80.60
2018-04-28T23:11:39.121Z,80.50
2018-04-28T23:14:06.817Z,80.60
2018-04-28T23:16:35.452Z,80.20
2018-04-28T23:19:03.173Z,80.20
2018-04-28T23:21:30.981Z,80.40
2018-04-28T23:23:58.852Z,80.50
2018-04-28T23:26:26.557Z,80.30
2018-04-28T23:28:54.373Z,80.20
2018-04-28T23:31:22.239Z,80.30
2018-04-28T23:33:50.105Z,80.40
2018-04-28T23:36:17.865Z,80.70
2018-04-28T23:38:45.731Z,80.90
2018-04-28T23:41:13.499Z,80.90
2018-04-28T23:43:41.256Z,81.00
2018-04-28T23:46:09.025Z,81.50
2018-04-28T23:48:36.720Z,81.70
2018-04-28T23:51:05.185Z,81.70
2018-04-28T23:53:32.889Z,81.60
2018-04-28T23:56:00.593Z,81.80
2018-04-28T23:58:28.293Z,82.10
